Time;durP1;ratioP1;P1;durP2;ratioP2;P2;SDS_P1;SDS_P2;PMS_P1;PMS_P2;Temp;Humidity;BMP_temperature;BMP_pressure;BME280_temperature;BME280_humidity;BME280_pressure;Samples;Min_cycle;Max_cycle;Signal;HPM_P1;HPM_P2
2021/07/13 00:01:37;;;;;;;117.53;51.85;;;;;;;15.18;90.63;101181.28;5012244;28;20106;-77
2021/07/13 00:04:03;;;;;;;115.50;49.38;;;;;;;15.12;91.13;101182.78;5009834;28;20026;-78
2021/07/13 00:06:28;;;;;;;104.68;44.83;;;;;;;15.10;91.12;101173.22;5012069;28;20088;-78
2021/07/13 00:08:54;;;;;;;114.13;48.92;;;;;;;15.08;90.84;101170.69;5011816;28;20527;-78
2021/07/13 00:11:20;;;;;;;118.57;47.88;;;;;;;15.03;91.04;101178.34;5012611;28;20118;-76
2021/07/13 00:13:48;;;;;;;107.97;46.88;;;;;;;14.96;91.02;101169.31;5015507;28;20041;-77
2021/07/13 00:16:14;;;;;;;91.93;40.20;;;;;;;14.89;91.18;101171.75;5015159;28;20041;-76
2021/07/13 00:18:40;;;;;;;104.97;44.88;;;;;;;14.85;90.85;101178.44;5014255;28;20077;-77
2021/07/13 00:21:07;;;;;;;91.00;39.28;;;;;;;14.80;90.93;101186.94;5015048;28;20062;-78
2021/07/13 00:23:34;;;;;;;102.05;42.97;;;;;;;14.81;91.19;101196.66;5015617;28;20092;-77
2021/07/13 00:26:00;;;;;;;95.68;41.85;;;;;;;14.77;91.21;101194.47;5014608;28;20105;-79
2021/07/13 00:28:25;;;;;;;81.13;35.00;;;;;;;14.68;90.91;101185.53;5015247;28;20030;-77
2021/07/13 00:30:51;;;;;;;75.00;35.45;;;;;;;14.60;91.00;101194.34;5015087;28;20034;-77
2021/07/13 00:33:16;;;;;;;82.07;35.85;;;;;;;14.59;91.18;101191.81;5014390;28;20042;-77
2021/07/13 00:35:41;;;;;;;104.32;44.95;;;;;;;14.57;91.06;101185.75;5015241;28;20401;-77
2021/07/13 00:38:07;;;;;;;102.70;41.25;;;;;;;14.60;91.24;101178.25;5014658;28;20049;-78
2021/07/13 00:40:32;;;;;;;145.05;53.55;;;;;;;14.63;91.05;101177.16;5014914;28;20485;-76
2021/07/13 00:42:58;;;;;;;126.65;47.17;;;;;;;14.55;90.97;101183.22;5015007;28;20117;-77
2021/07/13 00:45:24;;;;;;;90.93;36.10;;;;;;;14.50;90.83;101177.53;5014208;28;20036;-76
2021/07/13 00:47:51;;;;;;;69.55;29.55;;;;;;;14.48;91.01;101184.03;5013529;28;20486;-77
2021/07/13 00:50:20;;;;;;;90.80;35.55;;;;;;;14.51;90.90;101181.88;5014440;28;20041;-77
2021/07/13 00:52:45;;;;;;;85.95;34.90;;;;;;;14.50;91.15;101179.38;5014887;28;20034;-77
2021/07/13 00:55:14;;;;;;;80.03;30.77;;;;;;;14.51;91.20;101187.25;5014089;28;20379;-76
2021/07/13 00:57:41;;;;;;;76.55;32.10;;;;;;;14.50;91.30;101187.41;5014790;28;20499;-77
2021/07/13 01:00:11;;;;;;;92.40;36.00;;;;;;;14.56;90.98;101184.91;5014191;28;20025;-76
2021/07/13 01:02:38;;;;;;;134.10;47.67;;;;;;;14.65;90.90;101190.38;5013753;28;20129;-78
2021/07/13 01:05:10;;;;;;;228.05;71.40;;;;;;;14.69;91.23;101191.72;5014774;28;20034;-77
2021/07/13 01:08:00;;;;;;;147.00;52.13;;;;;;;14.65;91.08;101193.06;5014900;28;20530;-78
2021/07/13 01:10:47;;;;;;;136.13;46.90;;;;;;;14.62;91.00;101197.72;5013946;28;20044;-77
2021/07/13 01:13:41;;;;;;;142.88;55.72;;;;;;;14.54;91.26;101194.97;5014180;28;20049;-78
2021/07/13 01:16:32;;;;;;;133.88;49.85;;;;;;;14.60;91.10;101190.78;5014118;28;20037;-86
2021/07/13 01:19:39;;;;;;;221.23;70.93;;;;;;;14.81;91.35;101199.34;5014295;28;20034;-77
2021/07/13 01:22:13;;;;;;;229.90;71.43;;;;;;;14.95;91.65;101200.59;5000105;28;20490;-79
2021/07/13 01:25:23;;;;;;;285.38;87.15;;;;;;;15.09;91.64;101199.19;5013187;28;20050;-76
2021/07/13 01:27:48;;;;;;;259.70;76.15;;;;;;;15.14;91.41;101191.47;5014170;28;20056;-75
2021/07/13 01:30:18;;;;;;;271.90;79.30;;;;;;;15.13;91.85;101192.47;5013787;28;20031;-76
2021/07/13 01:32:47;;;;;;;225.50;72.90;;;;;;;15.06;91.57;101198.63;5014585;28;20033;-76
2021/07/13 01:35:18;;;;;;;225.73;69.95;;;;;;;15.01;91.44;101201.81;5013573;28;20048;-76
2021/07/13 01:37:51;;;;;;;253.35;77.25;;;;;;;15.05;91.62;101202.31;5014092;28;20060;-77
2021/07/13 01:40:17;;;;;;;269.60;81.65;;;;;;;15.13;91.38;101199.69;5013303;28;20034;-76
2021/07/13 01:42:43;;;;;;;274.73;81.53;;;;;;;15.20;91.32;101199.88;5014204;28;20042;-76
2021/07/13 01:45:10;;;;;;;296.20;85.10;;;;;;;15.26;91.67;101207.28;5013819;28;20382;-76
2021/07/13 01:47:38;;;;;;;310.90;85.43;;;;;;;15.35;91.73;101198.28;5013884;28;20038;-78
2021/07/13 01:50:10;;;;;;;367.13;97.38;;;;;;;15.51;91.65;101192.16;5013711;28;20482;-76
2021/07/13 01:52:38;;;;;;;368.85;100.60;;;;;;;15.61;91.77;101183.94;5013323;28;20042;-76
2021/07/13 01:55:05;;;;;;;391.83;103.60;;;;;;;15.68;91.81;101190.34;5013828;28;20541;-77
2021/07/13 01:57:32;;;;;;;388.05;100.75;;;;;;;15.70;92.14;101191.00;5013159;28;20034;-76
2021/07/13 02:00:00;;;;;;;449.23;113.03;;;;;;;15.84;91.88;101186.88;5012505;28;20040;-76
2021/07/13 02:02:28;;;;;;;468.55;120.93;;;;;;;15.96;91.90;101192.75;5012863;28;20092;-76
2021/07/13 02:04:55;;;;;;;376.90;107.35;;;;;;;16.02;92.23;101195.63;5013368;28;20062;-76
2021/07/13 02:07:22;;;;;;;475.52;123.03;;;;;;;16.10;91.93;101197.47;5027888;28;20045;-76
2021/07/13 02:09:48;;;;;;;465.08;118.38;;;;;;;16.16;92.18;101191.44;5012041;28;20393;-77
2021/07/13 02:12:14;;;;;;;445.83;111.55;;;;;;;16.17;91.90;101195.78;5013034;28;20045;-89
2021/07/13 02:14:40;;;;;;;448.85;115.47;;;;;;;16.21;91.72;101196.28;5013484;28;20429;-76
2021/07/13 02:17:05;;;;;;;457.85;115.35;;;;;;;16.24;92.22;101198.63;5013264;28;20124;-76
2021/07/13 02:19:31;;;;;;;444.25;110.32;;;;;;;16.26;91.91;101203.84;5012460;28;20030;-76
2021/07/13 02:21:56;;;;;;;448.92;113.70;;;;;;;16.27;92.05;101195.66;5013031;28;20037;-76
2021/07/13 02:24:23;;;;;;;442.25;113.93;;;;;;;16.28;92.17;101191.09;5012289;28;20058;-76
2021/07/13 02:26:52;;;;;;;464.75;113.75;;;;;;;16.27;91.86;101189.41;5013193;28;20034;-76
2021/07/13 02:29:34;;;;;;;468.02;115.55;;;;;;;16.24;92.10;101184.38;5012619;28;20056;-79
2021/07/13 02:32:10;;;;;;;467.58;115.75;;;;;;;16.20;91.92;101189.25;5013096;28;20029;-78
2021/07/13 02:34:39;;;;;;;472.85;112.03;;;;;;;16.20;92.10;101187.41;5011958;28;20041;-78
2021/07/13 02:37:07;;;;;;;506.00;123.00;;;;;;;16.22;91.95;101179.19;5012880;28;20037;-78
2021/07/13 02:39:34;;;;;;;513.97;119.68;;;;;;;16.25;92.06;101183.38;5012730;28;20030;-78
2021/07/13 02:42:00;;;;;;;497.02;123.45;;;;;;;16.30;92.09;101184.56;5013033;28;20045;-78
2021/07/13 02:44:29;;;;;;;600.15;141.30;;;;;;;16.36;92.10;101173.16;5012244;28;20502;-78
2021/07/13 02:46:56;;;;;;;592.20;138.48;;;;;;;16.38;92.12;101167.59;5013007;28;20048;-78
2021/07/13 02:49:26;;;;;;;598.95;137.00;;;;;;;16.42;92.06;101173.47;5012096;28;20037;-78
2021/07/13 02:51:53;;;;;;;630.78;140.48;;;;;;;16.45;92.34;101167.75;5013145;28;20038;-78
2021/07/13 02:54:22;;;;;;;608.70;137.82;;;;;;;16.49;92.22;101169.09;5012810;28;20033;-78
2021/07/13 02:56:49;;;;;;;610.55;141.68;;;;;;;16.51;92.40;101170.63;5012734;28;20489;-77
2021/07/13 02:59:17;;;;;;;601.85;135.45;;;;;;;16.55;92.34;101173.78;5012646;28;20072;-78
2021/07/13 03:01:44;;;;;;;619.53;139.43;;;;;;;16.57;92.34;101179.84;5011891;28;20030;-78
2021/07/13 03:04:09;;;;;;;620.47;141.10;;;;;;;16.57;92.32;101175.31;5012560;28;20125;-78
2021/07/13 03:06:36;;;;;;;652.40;145.40;;;;;;;16.62;92.33;101176.66;5012162;28;20120;-78
2021/07/13 03:09:03;;;;;;;590.47;137.77;;;;;;;16.63;92.44;101178.31;5012714;28;20065;-77
2021/07/13 03:11:32;;;;;;;597.13;138.98;;;;;;;16.63;92.18;101168.41;5010615;28;20029;-77
2021/07/13 03:14:00;;;;;;;567.13;134.88;;;;;;;16.64;92.06;101166.56;5012171;28;20167;-77
2021/07/13 03:16:26;;;;;;;614.35;141.00;;;;;;;16.63;92.07;101160.34;5011651;28;20494;-78
2021/07/13 03:18:51;;;;;;;565.72;131.43;;;;;;;16.64;92.36;101159.31;5012296;28;20041;-78
2021/07/13 03:21:22;;;;;;;585.90;134.00;;;;;;;16.64;92.15;101164.69;5012217;28;20394;-77
2021/07/13 03:23:50;;;;;;;553.28;127.32;;;;;;;16.65;92.10;101163.69;5011502;28;20518;-76
2021/07/13 03:26:16;;;;;;;541.20;127.82;;;;;;;16.66;91.92;101167.22;5011912;28;20060;-76
2021/07/13 03:28:43;;;;;;;592.70;138.15;;;;;;;16.66;92.42;101162.69;5011827;28;20034;-77
2021/07/13 03:31:09;;;;;;;577.03;140.75;;;;;;;16.69;92.13;101166.88;5011203;28;20030;-77
2021/07/13 03:33:35;;;;;;;572.38;137.18;;;;;;;16.70;92.23;101164.00;5011763;28;20084;-77
2021/07/13 03:36:01;;;;;;;540.20;130.68;;;;;;;16.69;92.02;101164.19;5012189;28;20037;-77
2021/07/13 03:38:26;;;;;;;543.90;133.13;;;;;;;16.69;92.47;101165.03;5011557;28;20030;-82
2021/07/13 03:40:52;;;;;;;557.72;135.20;;;;;;;16.70;92.09;101174.75;5012091;28;20034;-78
2021/07/13 03:43:18;;;;;;;549.80;135.52;;;;;;;16.71;92.30;101175.63;5012093;28;20113;-78
2021/07/13 03:45:44;;;;;;;546.78;133.98;;;;;;;16.72;91.99;101182.69;5011848;28;20044;-78
2021/07/13 03:48:11;;;;;;;546.10;131.88;;;;;;;16.72;92.23;101175.44;5016315;28;20107;-77
2021/07/13 03:50:37;;;;;;;534.08;132.40;;;;;;;16.74;92.31;101183.34;5015515;28;20156;-78
2021/07/13 03:53:03;;;;;;;531.08;132.90;;;;;;;16.74;92.13;101186.00;5015944;28;20123;-77
2021/07/13 03:55:29;;;;;;;520.38;129.07;;;;;;;16.75;92.41;101183.16;5015180;28;20038;-89
2021/07/13 03:57:55;;;;;;;515.65;127.28;;;;;;;16.76;92.29;101183.97;5015946;28;20557;-78
2021/07/13 04:00:27;;;;;;;507.90;126.47;;;;;;;16.77;92.46;101182.16;5016081;28;20054;-76
2021/07/13 04:02:53;;;;;;;532.72;129.43;;;;;;;16.78;92.28;101181.97;5015264;28;20423;-77
2021/07/13 04:05:18;;;;;;;524.92;128.13;;;;;;;16.77;91.90;101185.66;5015963;28;20116;-77
2021/07/13 04:07:43;;;;;;;508.98;127.13;;;;;;;16.79;92.36;101180.13;5015184;28;20034;-78
2021/07/13 04:10:12;;;;;;;512.58;129.07;;;;;;;16.81;92.07;101184.31;5015548;28;20545;-77
2021/07/13 04:12:37;;;;;;;527.90;130.23;;;;;;;16.80;92.09;101184.50;5015096;28;20038;-77
2021/07/13 04:15:05;;;;;;;541.75;132.57;;;;;;;16.81;92.46;101187.00;5014533;28;20067;-77
2021/07/13 04:17:30;;;;;;;473.13;115.65;;;;;;;16.82;92.25;101188.66;5015604;28;20030;-77
2021/07/13 04:19:56;;;;;;;513.40;125.55;;;;;;;16.83;92.27;101192.22;5015312;28;20037;-77
2021/07/13 04:22:22;;;;;;;510.30;127.80;;;;;;;16.85;91.95;101195.56;5015624;28;20422;-77
2021/07/13 04:24:47;;;;;;;454.75;125.05;;;;;;;16.80;92.13;101189.88;5014503;28;20076;-78
2021/07/13 04:27:12;;;;;;;440.92;118.57;;;;;;;16.79;92.24;101193.56;5015456;28;20038;-77
2021/07/13 04:29:38;;;;;;;424.60;111.22;;;;;;;16.80;92.04;101198.75;5015141;28;20033;-77
2021/07/13 04:32:04;;;;;;;417.13;114.57;;;;;;;16.81;92.31;101195.06;5015457;28;20060;-78
2021/07/13 04:34:31;;;;;;;335.15;106.47;;;;;;;16.81;92.06;101207.66;5015647;28;20069;-78
2021/07/13 04:36:56;;;;;;;343.60;103.38;;;;;;;16.78;92.11;101200.78;5014964;28;20177;-77
2021/07/13 04:39:22;;;;;;;362.35;106.45;;;;;;;16.82;92.01;101207.47;5015574;28;20501;-77
2021/07/13 04:41:47;;;;;;;331.90;100.32;;;;;;;16.84;92.14;101207.31;5014647;28;20429;-77
2021/07/13 04:44:13;;;;;;;329.83;99.32;;;;;;;16.85;92.18;101212.50;5015305;28;20036;-76
2021/07/13 04:46:38;;;;;;;321.25;97.75;;;;;;;16.88;92.00;101208.69;5014581;28;20362;-78
2021/07/13 04:49:03;;;;;;;305.40;97.90;;;;;;;16.88;92.13;101204.16;5015091;28;20406;-77
2021/07/13 04:51:29;;;;;;;304.05;98.97;;;;;;;16.88;91.91;101214.91;5015367;28;20041;-77
2021/07/13 04:53:54;;;;;;;322.80;99.05;;;;;;;16.88;91.86;101220.28;5014584;28;20064;-76
2021/07/13 04:56:20;;;;;;;298.15;95.43;;;;;;;16.87;92.07;101220.47;5014988;28;20092;-77
2021/07/13 04:58:45;;;;;;;309.88;96.80;;;;;;;16.88;91.69;101222.97;5014147;28;20053;-77
2021/07/13 05:01:11;;;;;;;288.75;93.72;;;;;;;16.90;91.82;101220.13;5015253;28;20049;-78
2021/07/13 05:03:36;;;;;;;284.15;93.25;;;;;;;16.92;92.04;101218.91;5014806;28;20528;-76
2021/07/13 05:06:02;;;;;;;273.08;91.38;;;;;;;16.97;91.81;101217.56;5012832;28;20379;-76
2021/07/13 05:08:28;;;;;;;261.23;89.13;;;;;;;17.01;91.68;101216.22;5014679;28;20026;-76
2021/07/13 05:10:53;;;;;;;241.20;85.18;;;;;;;17.04;91.67;101223.94;4996640;28;20067;-76
2021/07/13 05:13:19;;;;;;;217.77;80.57;;;;;;;17.11;91.47;101233.00;5014644;28;20038;-80
2021/07/13 05:15:44;;;;;;;209.43;78.10;;;;;;;17.13;91.79;101230.97;5014069;28;20045;-77
2021/07/13 05:18:11;;;;;;;192.93;77.43;;;;;;;17.15;91.54;101237.00;5013548;28;20038;-77
2021/07/13 05:20:40;;;;;;;185.95;72.60;;;;;;;17.17;91.57;101236.84;5014620;28;20394;-76
2021/07/13 05:23:08;;;;;;;174.18;71.03;;;;;;;17.20;91.37;101241.88;5014224;28;20034;-79
2021/07/13 05:25:34;;;;;;;155.40;68.45;;;;;;;17.16;91.26;101238.69;5014384;28;20151;-80
2021/07/13 05:28:00;;;;;;;142.93;63.17;;;;;;;17.09;90.89;101238.53;5013889;28;20064;-76
2021/07/13 05:30:27;;;;;;;138.85;62.15;;;;;;;17.08;90.37;101241.41;5013256;28;20030;-75
2021/07/13 05:32:53;;;;;;;145.82;62.72;;;;;;;17.10;90.69;101240.19;5013938;28;20076;-74
2021/07/13 05:35:19;;;;;;;135.27;62.22;;;;;;;17.14;90.56;101242.53;5014220;28;20040;-76
2021/07/13 05:37:44;;;;;;;133.55;60.55;;;;;;;17.15;90.37;101242.38;5013439;28;20030;-77
2021/07/13 05:40:10;;;;;;;130.75;58.63;;;;;;;17.18;90.51;101246.56;5014267;28;20117;-76
2021/07/13 05:42:35;;;;;;;123.28;57.28;;;;;;;17.22;90.27;101254.13;5014268;28;20093;-74
2021/07/13 05:45:03;;;;;;;129.00;58.75;;;;;;;17.26;89.96;101249.25;5012492;28;20038;-75
2021/07/13 05:47:28;;;;;;;120.15;54.50;;;;;;;17.28;89.74;101241.84;5014116;28;20038;-74
2021/07/13 05:49:54;;;;;;;109.00;54.25;;;;;;;17.28;89.55;101248.03;5013252;28;20026;-73
2021/07/13 05:52:20;;;;;;;102.63;51.70;;;;;;;17.33;89.54;101244.84;5013550;28;20030;-74
2021/07/13 05:54:45;;;;;;;103.85;53.30;;;;;;;17.37;89.34;101248.03;5012488;28;20038;-83
2021/07/13 05:57:11;;;;;;;98.75;49.25;;;;;;;17.47;89.15;101251.34;5013536;28;20060;-74
2021/07/13 05:59:36;;;;;;;93.65;48.88;;;;;;;17.55;88.69;101250.47;5013626;28;20111;-75
2021/07/13 06:02:02;;;;;;;94.90;50.20;;;;;;;17.67;88.48;101256.31;5012961;28;20034;-75
2021/07/13 06:04:27;;;;;;;87.55;47.10;;;;;;;17.74;87.93;101252.72;5013410;28;20085;-75
2021/07/13 06:06:53;;;;;;;89.63;47.58;;;;;;;17.80;87.71;101253.88;5011660;28;20110;-75
2021/07/13 06:09:19;;;;;;;83.80;45.78;;;;;;;17.88;86.72;101255.69;5011032;28;20037;-75
2021/07/13 06:11:44;;;;;;;85.38;45.40;;;;;;;18.02;86.04;101254.97;5013421;28;20529;-75
2021/07/13 06:14:10;;;;;;;74.22;42.17;;;;;;;18.18;85.39;101251.31;5012645;28;20041;-75
2021/07/13 06:16:35;;;;;;;73.97;43.55;;;;;;;18.30;84.98;101240.94;5013262;28;20458;-75
2021/07/13 06:19:00;;;;;;;70.18;42.00;;;;;;;18.43;84.21;101251.13;5012700;28;20034;-75
2021/07/13 06:21:26;;;;;;;65.50;39.72;;;;;;;18.51;83.49;101253.75;5013149;28;20034;-75
2021/07/13 06:23:51;;;;;;;62.78;38.65;;;;;;;18.60;82.77;101255.38;5012187;28;20042;-76
2021/07/13 06:26:17;;;;;;;63.55;39.42;;;;;;;18.59;82.52;101258.25;5012869;28;20134;-75
2021/07/13 06:28:42;;;;;;;59.95;38.38;;;;;;;18.61;82.90;101261.59;5013133;28;20393;-75
2021/07/13 06:31:07;;;;;;;60.80;39.80;;;;;;;18.58;82.80;101261.94;5012575;28;20104;-75
2021/07/13 06:33:33;;;;;;;64.53;38.20;;;;;;;18.52;82.50;101262.69;5013083;28;20040;-75
2021/07/13 06:35:58;;;;;;;56.35;35.97;;;;;;;18.45;82.63;101260.72;5012275;28;20038;-75
2021/07/13 06:38:24;;;;;;;65.28;39.78;;;;;;;18.37;82.77;101255.38;5012840;28;20036;-75
2021/07/13 06:40:50;;;;;;;67.50;40.53;;;;;;;18.36;82.89;101256.38;5012809;28;20041;-75
2021/07/13 06:43:15;;;;;;;71.65;41.72;;;;;;;18.30;82.75;101254.41;5012404;28;20032;-75
2021/07/13 06:45:41;;;;;;;64.28;40.53;;;;;;;18.19;83.51;101258.38;5012703;28;20034;-75
2021/07/13 06:48:06;;;;;;;83.22;45.60;;;;;;;18.06;83.59;101258.94;5012237;28;20084;-75
2021/07/13 06:50:31;;;;;;;88.70;47.42;;;;;;;18.04;83.69;101258.31;5011525;28;20034;-74
2021/07/13 06:52:57;;;;;;;90.72;48.45;;;;;;;18.07;83.64;101260.66;5012057;28;20109;-74
2021/07/13 06:55:22;;;;;;;83.88;44.85;;;;;;;18.11;82.75;101261.16;5013016;28;20036;-74
2021/07/13 06:57:48;;;;;;;88.13;46.70;;;;;;;18.10;83.21;101262.16;5012631;28;20064;-75
2021/07/13 07:00:14;;;;;;;89.45;45.88;;;;;;;18.12;82.96;101266.34;5012087;28;20037;-75
2021/07/13 07:02:40;;;;;;;77.65;42.22;;;;;;;18.20;83.23;101270.84;5012529;28;20486;-74
2021/07/13 07:05:07;;;;;;;89.65;47.08;;;;;;;18.20;82.79;101273.53;5011911;28;20128;-75
2021/07/13 07:07:33;;;;;;;89.65;47.15;;;;;;;18.21;82.74;101275.19;5012447;28;20034;-75
2021/07/13 07:09:58;;;;;;;83.65;44.65;;;;;;;18.19;82.49;101273.72;5010907;28;20034;-75
2021/07/13 07:12:23;;;;;;;76.90;44.20;;;;;;;18.21;81.87;101277.88;5011391;28;20393;-75
2021/07/13 07:14:49;;;;;;;79.30;43.15;;;;;;;18.23;81.87;101278.56;5012543;28;20490;-75
2021/07/13 07:17:14;;;;;;;84.47;44.58;;;;;;;18.20;82.00;101275.38;5011854;28;20122;-75
2021/07/13 07:19:40;;;;;;;82.82;45.13;;;;;;;18.18;82.49;101274.72;5012218;28;20462;-75
2021/07/13 07:22:05;;;;;;;81.63;43.10;;;;;;;18.18;82.63;101282.78;5010428;28;20038;-75
2021/07/13 07:24:31;;;;;;;80.57;43.28;;;;;;;18.28;82.48;101280.72;5010850;28;20053;-74
2021/07/13 07:26:56;;;;;;;75.32;40.72;;;;;;;18.42;81.50;101284.47;5012257;28;20033;-74
2021/07/13 07:29:22;;;;;;;72.90;40.67;;;;;;;18.48;81.22;101286.44;5011736;28;20545;-74
2021/07/13 07:31:47;;;;;;;70.00;39.65;;;;;;;18.50;81.17;101290.63;5012346;28;20068;-74
2021/07/13 07:34:13;;;;;;;66.32;37.75;;;;;;;18.53;80.68;101286.75;5011700;28;20041;-73
2021/07/13 07:36:38;;;;;;;63.67;38.25;;;;;;;18.52;80.97;101289.63;5012198;28;20109;-76
2021/07/13 07:39:04;;;;;;;64.30;36.45;;;;;;;18.45;80.71;101289.50;5011707;28;20038;-74
2021/07/13 07:41:29;;;;;;;63.95;37.40;;;;;;;18.46;81.32;101291.19;5010764;28;20080;-74
2021/07/13 07:43:56;;;;;;;66.90;37.33;;;;;;;18.45;80.75;101289.50;5011060;28;20038;-75
2021/07/13 07:46:21;;;;;;;61.35;36.08;;;;;;;18.47;80.35;101303.66;5011587;28;20707;-74
2021/07/13 07:48:46;;;;;;;61.33;34.97;;;;;;;18.52;80.64;101292.31;5012074;28;20054;-74
2021/07/13 07:51:12;;;;;;;55.63;32.60;;;;;;;18.59;79.85;101296.81;5011441;28;20076;-75
2021/07/13 07:53:37;;;;;;;57.85;33.17;;;;;;;18.70;79.26;101300.91;5012129;28;20030;-75
2021/07/13 07:56:03;;;;;;;53.35;32.63;;;;;;;18.62;79.60;101301.81;5012574;28;20480;-74
2021/07/13 07:58:28;;;;;;;52.38;30.65;;;;;;;18.66;79.68;101303.16;5012170;28;20061;-74
2021/07/13 08:00:54;;;;;;;47.33;30.52;;;;;;;18.62;79.19;101299.13;5012026;28;20501;-74
2021/07/13 08:03:20;;;;;;;50.05;30.25;;;;;;;18.62;79.50;101301.81;5011515;28;20061;-74
2021/07/13 08:05:46;;;;;;;46.75;29.23;;;;;;;18.73;78.95;101295.16;5010589;28;20069;-76
2021/07/13 08:08:11;;;;;;;47.55;29.48;;;;;;;18.79;78.37;101304.38;5011452;28;20034;-75
2021/07/13 08:10:37;;;;;;;47.15;29.48;;;;;;;18.77;78.83;101309.13;5010753;28;20034;-74
2021/07/13 08:13:04;;;;;;;41.88;28.27;;;;;;;18.70;78.33;101306.31;5011919;28;20034;-74
2021/07/13 08:15:30;;;;;;;50.22;29.42;;;;;;;18.74;78.96;101302.25;5011303;28;20434;-74
2021/07/13 08:17:55;;;;;;;44.75;29.38;;;;;;;18.75;78.28;101301.22;5011978;28;20041;-74
2021/07/13 08:20:20;;;;;;;46.88;29.25;;;;;;;18.83;76.89;101309.22;5011298;28;20109;-75
2021/07/13 08:22:47;;;;;;;42.03;27.08;;;;;;;18.84;77.17;101307.38;5010527;28;20046;-74
2021/07/13 08:25:17;;;;;;;45.47;28.50;;;;;;;18.89;77.21;101306.88;5011228;28;20092;-74
2021/07/13 08:27:44;;;;;;;45.08;27.30;;;;;;;18.61;77.52;101313.63;5012309;28;20030;-75
2021/07/13 08:30:09;;;;;;;42.05;27.63;;;;;;;18.47;78.39;101315.25;5011082;28;20465;-79
2021/07/13 08:32:35;;;;;;;48.10;30.83;;;;;;;18.50;78.95;101314.88;5013422;28;20038;-75
2021/07/13 08:35:00;;;;;;;52.28;30.35;;;;;;;18.45;78.60;101311.03;5015234;28;20045;-76
2021/07/13 08:37:29;;;;;;;45.13;28.17;;;;;;;18.46;78.63;101304.66;5014541;28;20107;-75
2021/07/13 08:39:54;;;;;;;45.20;28.25;;;;;;;18.42;78.90;101303.31;5015107;28;20036;-75
2021/07/13 08:42:20;;;;;;;44.78;28.90;;;;;;;18.48;78.81;101308.00;5014553;28;20034;-74
2021/07/13 08:44:45;;;;;;;49.53;29.20;;;;;;;18.55;78.49;101308.94;5015039;28;20061;-75
2021/07/13 08:47:15;;;;;;;45.72;28.23;;;;;;;18.63;78.68;101305.34;5014936;28;20108;-75
2021/07/13 08:49:42;;;;;;;45.60;27.65;;;;;;;18.61;78.60;101302.00;5014955;28;20037;-76
2021/07/13 08:52:08;;;;;;;45.97;27.75;;;;;;;18.63;78.13;101308.03;5015054;28;20038;-76
2021/07/13 08:54:36;;;;;;;49.55;29.75;;;;;;;18.62;77.56;101304.53;5014325;28;20482;-75
2021/07/13 08:57:02;;;;;;;46.97;29.17;;;;;;;18.70;78.21;101305.47;5014898;28;20533;-75
2021/07/13 08:59:28;;;;;;;47.53;29.77;;;;;;;18.80;77.01;101301.50;5014433;28;20034;-74
2021/07/13 09:01:54;;;;;;;46.65;29.40;;;;;;;18.96;77.07;101307.78;5014802;28;20370;-75
2021/07/13 09:04:19;;;;;;;45.28;28.58;;;;;;;19.22;76.52;101306.53;5013994;28;20057;-75
2021/07/13 09:07:11;;;;;;;47.13;29.63;;;;;;;19.44;75.77;101311.00;5014877;28;20061;-74
2021/07/13 09:09:38;;;;;;;45.42;28.13;;;;;;;19.41;75.21;101307.81;5011630;28;20045;-75
2021/07/13 09:12:06;;;;;;;49.28;29.65;;;;;;;19.32;75.58;101309.81;5014785;28;20029;-75
2021/07/13 09:14:52;;;;;;;49.17;29.23;;;;;;;19.18;76.25;101314.16;5013988;28;20494;-75
2021/07/13 09:17:56;;;;;;;49.17;28.45;;;;;;;19.40;75.68;101307.00;5014213;28;20053;-76
2021/07/13 09:20:24;;;;;;;47.95;27.60;;;;;;;19.78;74.53;101306.06;5004149;28;20046;-75
2021/07/13 09:22:52;;;;;;;42.33;27.60;;;;;;;20.05;73.87;101310.78;5014464;28;20510;-75
2021/07/13 09:25:21;;;;;;;45.35;27.38;;;;;;;20.00;73.60;101315.06;5013721;28;20058;-78
2021/07/13 09:28:06;;;;;;;45.70;27.35;;;;;;;19.92;73.06;101315.19;5014336;28;20520;-75
2021/07/13 09:30:32;;;;;;;41.63;25.73;;;;;;;20.07;72.51;101319.50;5012670;28;20033;-75
2021/07/13 09:33:15;;;;;;;39.35;25.50;;;;;;;20.21;70.73;101309.72;5014497;28;20045;-75
2021/07/13 09:36:12;;;;;;;40.97;26.20;;;;;;;20.37;70.82;101314.00;5013417;28;20033;-74
2021/07/13 09:38:40;;;;;;;36.80;24.00;;;;;;;20.53;70.70;101307.53;5013691;28;20112;-76
2021/07/13 09:41:12;;;;;;;39.08;22.65;;;;;;;20.38;70.88;101321.09;5014108;28;20030;-75
2021/07/13 09:43:42;;;;;;;33.60;22.73;;;;;;;20.08;72.37;101315.78;5013480;28;20109;-76
2021/07/13 09:46:26;;;;;;;31.58;21.23;;;;;;;20.13;70.29;101315.22;5013939;28;20030;-75
2021/07/13 09:49:11;;;;;;;28.02;19.27;;;;;;;20.20;71.69;101318.00;5013862;28;20065;-75
2021/07/13 09:51:41;;;;;;;31.05;20.27;;;;;;;20.24;71.11;101317.44;5013215;28;20065;-75
2021/07/13 09:54:26;;;;;;;31.88;19.20;;;;;;;20.31;70.55;101316.66;5014239;28;20033;-75
2021/07/13 09:56:52;;;;;;;34.35;19.92;;;;;;;20.06;70.70;101314.31;5013802;28;20116;-75
2021/07/13 09:59:17;;;;;;;34.13;20.73;;;;;;;19.94;70.85;101318.53;5014243;28;20113;-76
2021/07/13 10:01:43;;;;;;;33.20;21.08;;;;;;;19.86;71.21;101317.59;5013236;28;20038;-75
2021/07/13 10:04:08;;;;;;;32.97;21.60;;;;;;;19.71;71.55;101323.00;5013778;28;20045;-76
2021/07/13 10:06:34;;;;;;;30.50;19.10;;;;;;;19.81;71.65;101317.34;5012155;28;20041;-75
2021/07/13 10:09:00;;;;;;;27.98;20.42;;;;;;;19.86;71.42;101311.38;5013501;28;20041;-75
2021/07/13 10:11:29;;;;;;;28.55;18.17;;;;;;;20.19;71.25;101316.31;5013121;28;20042;-76
2021/07/13 10:13:58;;;;;;;30.85;18.52;;;;;;;20.50;68.83;101313.31;5013599;28;20065;-75
2021/07/13 10:16:25;;;;;;;21.27;16.50;;;;;;;20.82;68.53;101315.72;5013633;28;20033;-75
2021/07/13 10:18:50;;;;;;;25.15;15.10;;;;;;;20.89;67.32;101313.91;5013339;28;20030;-76
2021/07/13 10:21:17;;;;;;;21.90;13.57;;;;;;;20.69;67.18;101319.13;5013443;28;20064;-75
2021/07/13 10:23:45;;;;;;;19.30;13.10;;;;;;;20.78;67.81;101324.22;5012607;28;20116;-75
2021/07/13 10:26:11;;;;;;;19.33;12.82;;;;;;;21.37;66.48;101324.84;5013403;28;20058;-76
2021/07/13 10:28:38;;;;;;;19.67;12.05;;;;;;;21.37;65.83;101332.94;5012682;28;20537;-75
2021/07/13 10:31:04;;;;;;;18.60;11.48;;;;;;;21.33;66.45;101338.97;5013279;28;20038;-76
2021/07/13 10:33:37;;;;;;;22.02;12.23;;;;;;;21.33;66.80;101342.50;5012525;28;20033;-76
2021/07/13 10:36:26;;;;;;;20.52;12.10;;;;;;;21.33;65.50;101338.97;5013249;28;20053;-76
2021/07/13 10:39:25;;;;;;;16.55;11.18;;;;;;;21.38;64.66;101337.34;5012576;28;20076;-76
2021/07/13 10:41:51;;;;;;;16.45;10.90;;;;;;;21.33;65.79;101331.66;5012527;28;20041;-76
2021/07/13 10:44:58;;;;;;;20.67;11.07;;;;;;;21.26;65.74;101339.75;5012924;28;20022;-76
2021/07/13 10:47:32;;;;;;;16.77;9.98;;;;;;;21.12;66.49;101340.69;5013242;28;20034;-75
2021/07/13 10:50:15;;;;;;;16.50;10.63;;;;;;;21.09;66.05;101341.09;5013286;28;20065;-76
2021/07/13 10:53:18;;;;;;;17.52;10.88;;;;;;;20.69;66.70;101340.75;5012433;28;20399;-77
2021/07/13 10:55:51;;;;;;;16.27;11.23;;;;;;;20.49;68.11;101343.25;4990685;28;20058;-76
2021/07/13 10:58:22;;;;;;;18.35;11.75;;;;;;;20.20;68.49;101351.25;5013079;28;20062;-77
2021/07/13 11:00:48;;;;;;;16.05;12.27;;;;;;;20.03;68.69;101352.50;5012316;28;20092;-78
2021/07/13 11:03:29;;;;;;;20.88;12.82;;;;;;;19.94;68.78;101350.94;5011799;28;20033;-76
2021/07/13 11:06:09;;;;;;;19.73;13.60;;;;;;;19.64;69.81;101362.56;5012252;28;20093;-81
2021/07/13 11:08:40;;;;;;;22.00;14.02;;;;;;;19.37;71.11;101366.72;5012276;28;20049;-77
2021/07/13 11:11:18;;;;;;;18.67;13.05;;;;;;;19.24;70.82;101369.22;5012772;28;20374;-76